createdAt,value
2018-06-24T00:00:11.131Z,2.47
2018-06-24T00:02:40.243Z,2.40
2018-06-24T00:05:09.541Z,2.70
2018-06-24T00:07:40.113Z,2.67
2018-06-24T00:10:09.349Z,2.90
2018-06-24T00:12:38.925Z,3.87
2018-06-24T00:15:09.209Z,5.07
2018-06-24T00:17:38.320Z,4.77
2018-06-24T00:20:07.651Z,5.80
2018-06-24T00:22:37.444Z,4.63
2018-06-24T00:25:05.758Z,5.43
2018-06-24T00:27:35.326Z,4.90
2018-06-24T00:30:04.087Z,5.00
2018-06-24T00:32:33.275Z,5.20
2018-06-24T00:35:03.407Z,5.57
2018-06-24T00:37:32.767Z,4.93
2018-06-24T00:40:02.177Z,4.40
2018-06-24T00:42:32.000Z,4.53
2018-06-24T00:45:01.367Z,5.13
2018-06-24T00:47:31.736Z,5.50
2018-06-24T00:50:01.584Z,4.93
2018-06-24T00:52:30.670Z,4.30
2018-06-24T00:55:00.009Z,4.80
2018-06-24T00:57:29.899Z,4.50
2018-06-24T01:00:16.053Z,5.90
2018-06-24T01:02:45.298Z,4.97
2018-06-24T01:05:15.009Z,4.80
2018-06-24T01:07:44.966Z,5.00
2018-06-24T01:10:14.313Z,5.27
2018-06-24T01:12:43.489Z,5.20
2018-06-24T01:15:12.681Z,4.73
2018-06-24T01:17:41.882Z,5.27
2018-06-24T01:20:10.609Z,4.57
2018-06-24T01:22:39.946Z,5.93
2018-06-24T01:25:09.569Z,5.40
2018-06-24T01:27:39.769Z,5.10
2018-06-24T01:30:09.012Z,4.97
2018-06-24T01:32:39.114Z,5.13
2018-06-24T01:35:08.439Z,5.03
2018-06-24T01:37:37.626Z,4.77
2018-06-24T01:40:06.843Z,4.90
2018-06-24T01:42:36.217Z,4.47
2018-06-24T01:45:04.994Z,4.90
2018-06-24T01:47:34.098Z,4.53
2018-06-24T01:50:03.382Z,5.07
2018-06-24T01:52:31.650Z,5.10
2018-06-24T01:54:59.866Z,4.37
2018-06-24T01:57:28.098Z,4.50
2018-06-24T01:59:56.335Z,5.40
2018-06-24T02:02:24.560Z,5.90
2018-06-24T02:04:52.799Z,4.87
2018-06-24T02:07:21.010Z,4.60
2018-06-24T02:09:49.233Z,5.23
2018-06-24T02:12:18.446Z,6.07
2018-06-24T02:14:46.673Z,5.37
2018-06-24T02:17:14.910Z,5.73
2018-06-24T02:19:43.170Z,4.40
2018-06-24T02:22:11.394Z,4.83
2018-06-24T02:24:39.730Z,5.80
2018-06-24T02:27:07.943Z,4.73
2018-06-24T02:29:37.177Z,5.67
2018-06-24T02:32:05.457Z,4.63
2018-06-24T02:34:33.678Z,5.07
2018-06-24T02:37:01.912Z,4.97
2018-06-24T02:39:30.127Z,5.37
2018-06-24T02:41:58.353Z,5.07
2018-06-24T02:44:26.575Z,5.30
2018-06-24T02:46:54.832Z,5.40
2018-06-24T02:49:23.062Z,4.90
2018-06-24T02:51:51.279Z,5.20
2018-06-24T02:54:19.642Z,5.53
2018-06-24T02:56:47.866Z,4.87
2018-06-24T02:59:16.082Z,5.13
2018-06-24T03:01:44.303Z,5.03
2018-06-24T03:04:12.535Z,4.10
2018-06-24T03:06:40.545Z,5.67
2018-06-24T03:09:09.951Z,4.93
2018-06-24T03:11:38.182Z,4.93
2018-06-24T03:14:06.315Z,5.67
2018-06-24T03:16:34.639Z,4.90
2018-06-24T03:19:02.600Z,4.53
2018-06-24T03:21:30.548Z,5.63
2018-06-24T03:23:58.817Z,4.73
2018-06-24T03:26:27.047Z,5.20
2018-06-24T03:28:55.246Z,4.87
2018-06-24T03:31:23.471Z,5.60
2018-06-24T03:33:51.687Z,5.73
2018-06-24T03:36:19.910Z,5.80
2018-06-24T03:38:47.883Z,5.40
2018-06-24T03:41:15.847Z,5.80
2018-06-24T03:43:43.833Z,5.53
2018-06-24T03:46:12.068Z,5.10
2018-06-24T03:48:40.311Z,5.30
2018-06-24T03:51:08.545Z,5.30
2018-06-24T03:53:36.770Z,5.60
2018-06-24T03:56:05.173Z,5.60
2018-06-24T03:58:33.407Z,5.70
2018-06-24T04:01:01.642Z,5.70
2018-06-24T04:03:29.626Z,5.47
2018-06-24T04:05:57.860Z,5.53
2018-06-24T04:08:26.120Z,5.70
2018-06-24T04:10:54.364Z,5.60
2018-06-24T04:13:22.631Z,5.43
2018-06-24T04:15:51.098Z,5.40
2018-06-24T04:18:19.097Z,5.30
2018-06-24T04:20:47.268Z,5.53
2018-06-24T04:23:15.511Z,6.07
2018-06-24T04:25:43.782Z,5.80
2018-06-24T04:28:11.978Z,6.50
2018-06-24T04:30:40.217Z,6.57
2018-06-24T04:33:08.171Z,7.00
2018-06-24T04:35:37.414Z,6.00
2018-06-24T04:38:05.632Z,6.47
2018-06-24T04:40:33.862Z,6.20
2018-06-24T04:43:02.104Z,7.20
2018-06-24T04:45:30.078Z,6.20
2018-06-24T04:47:58.066Z,6.27
2018-06-24T04:50:26.306Z,5.77
2018-06-24T04:52:54.276Z,5.83
2018-06-24T04:55:22.234Z,5.67
2018-06-24T04:57:50.193Z,6.23
2018-06-24T05:00:18.156Z,5.97
2018-06-24T05:02:46.119Z,6.03
2018-06-24T05:05:14.110Z,6.80
2018-06-24T05:07:42.058Z,7.60
2018-06-24T05:10:10.024Z,6.37
2018-06-24T05:12:37.977Z,6.13
2018-06-24T05:15:05.950Z,6.77
2018-06-24T05:17:33.967Z,5.60
2018-06-24T05:20:01.934Z,6.53
2018-06-24T05:22:29.950Z,6.30
2018-06-24T05:24:58.986Z,5.50
2018-06-24T05:27:26.948Z,6.30
2018-06-24T05:29:54.923Z,5.53
2018-06-24T05:32:22.876Z,5.70
2018-06-24T05:34:50.842Z,6.00
2018-06-24T05:37:18.824Z,6.00
2018-06-24T05:39:46.813Z,5.30
2018-06-24T05:42:14.777Z,4.90
2018-06-24T05:44:42.742Z,5.00
2018-06-24T05:47:10.713Z,5.43
2018-06-24T05:49:38.660Z,5.50
2018-06-24T05:52:06.658Z,4.80
2018-06-24T05:54:34.649Z,6.10
2018-06-24T05:57:02.622Z,5.43
2018-06-24T05:59:30.589Z,5.00
2018-06-24T06:01:58.562Z,5.80
2018-06-24T06:04:26.521Z,5.00
2018-06-24T06:06:54.491Z,5.20
2018-06-24T06:09:22.467Z,5.17
2018-06-24T06:11:50.422Z,4.97
2018-06-24T06:14:18.373Z,4.93
2018-06-24T06:16:46.329Z,4.73
2018-06-24T06:19:14.288Z,5.90
2018-06-24T06:21:42.245Z,5.30
2018-06-24T06:24:10.227Z,5.50
2018-06-24T06:26:38.193Z,6.50
2018-06-24T06:29:06.145Z,5.37
2018-06-24T06:31:34.250Z,4.23
2018-06-24T06:34:02.197Z,6.20
2018-06-24T06:36:30.145Z,5.13
2018-06-24T06:38:58.114Z,5.20
2018-06-24T06:41:26.078Z,5.73
2018-06-24T06:43:54.024Z,5.07
2018-06-24T06:46:21.978Z,5.90
2018-06-24T06:48:49.921Z,5.50
2018-06-24T06:51:18.890Z,5.10
2018-06-24T06:53:47.093Z,5.50
2018-06-24T06:56:15.327Z,6.47
2018-06-24T06:58:44.290Z,4.90
2018-06-24T07:01:12.515Z,6.07
2018-06-24T07:03:40.774Z,5.43
2018-06-24T07:06:08.727Z,4.87
2018-06-24T07:08:37.955Z,5.17
2018-06-24T07:11:06.152Z,5.90
2018-06-24T07:13:34.386Z,5.63
2018-06-24T07:16:02.618Z,5.40
2018-06-24T07:18:30.837Z,4.90
2018-06-24T07:20:58.785Z,5.50
2018-06-24T07:23:27.019Z,6.20
2018-06-24T07:25:55.253Z,6.00
2018-06-24T07:28:24.238Z,5.50
2018-06-24T07:30:52.470Z,6.00
2018-06-24T07:33:20.697Z,6.10
2018-06-24T07:35:48.666Z,6.10
2018-06-24T07:38:16.898Z,5.93
2018-06-24T07:40:45.154Z,6.03
2018-06-24T07:43:13.382Z,5.60
2018-06-24T07:45:41.599Z,6.00
2018-06-24T07:48:10.863Z,5.67
2018-06-24T07:50:39.199Z,6.23
2018-06-24T07:53:07.610Z,6.17
2018-06-24T07:55:35.581Z,6.17
2018-06-24T07:58:03.549Z,5.70
2018-06-24T08:00:31.529Z,5.83
2018-06-24T08:02:59.766Z,5.90
2018-06-24T08:05:27.995Z,6.47
2018-06-24T08:07:57.231Z,6.33
2018-06-24T08:10:25.496Z,6.50
2018-06-24T08:12:53.843Z,5.43
2018-06-24T08:15:22.059Z,5.67
2018-06-24T08:17:50.267Z,6.10
2018-06-24T08:20:18.481Z,5.87
2018-06-24T08:22:46.738Z,6.20
2018-06-24T08:25:14.946Z,5.63
2018-06-24T08:27:43.305Z,6.90
2018-06-24T08:30:11.541Z,5.63
2018-06-24T08:32:39.798Z,6.90
2018-06-24T08:35:07.746Z,6.20
2018-06-24T08:37:37.009Z,6.67
2018-06-24T08:40:05.434Z,6.87
2018-06-24T08:42:33.402Z,5.83
2018-06-24T08:45:01.671Z,6.00
2018-06-24T08:47:32.910Z,6.73
2018-06-24T08:50:01.167Z,5.93
2018-06-24T08:52:29.396Z,7.97
2018-06-24T08:54:57.646Z,7.07
2018-06-24T08:57:26.894Z,6.13
2018-06-24T08:59:55.153Z,5.93
2018-06-24T09:02:23.387Z,6.70
2018-06-24T09:04:51.672Z,6.63
2018-06-24T09:07:19.638Z,6.97
2018-06-24T09:09:47.590Z,6.23
2018-06-24T09:12:15.833Z,6.67
2018-06-24T09:14:44.151Z,7.00
2018-06-24T09:17:12.415Z,6.37
2018-06-24T09:19:40.634Z,6.57
2018-06-24T09:22:09.127Z,6.30
2018-06-24T09:24:37.282Z,6.60
2018-06-24T09:27:05.538Z,6.77
2018-06-24T09:29:33.561Z,5.80
2018-06-24T09:32:01.858Z,6.10
2018-06-24T09:34:31.178Z,6.23
2018-06-24T09:36:59.411Z,6.90
2018-06-24T09:39:27.674Z,6.90
2018-06-24T09:41:55.905Z,5.53
2018-06-24T09:44:24.174Z,5.60
2018-06-24T09:46:52.418Z,6.97
2018-06-24T09:49:20.701Z,5.37
2018-06-24T09:51:48.978Z,5.33
2018-06-24T09:54:17.191Z,5.57
2018-06-24T09:56:45.484Z,6.90
2018-06-24T09:59:13.708Z,5.60
2018-06-24T10:01:41.971Z,5.20
2018-06-24T10:04:10.271Z,5.30
2018-06-24T10:06:38.510Z,4.43
2018-06-24T10:09:08.663Z,4.83
2018-06-24T10:11:37.523Z,5.63
2018-06-24T10:14:06.783Z,4.77
2018-06-24T10:16:35.163Z,4.90
2018-06-24T10:19:04.085Z,4.77
2018-06-24T10:21:33.205Z,4.90
2018-06-24T10:24:01.900Z,4.60
2018-06-24T10:26:29.857Z,5.73
2018-06-24T10:28:58.845Z,5.40
2018-06-24T10:31:27.077Z,6.37
2018-06-24T10:33:55.325Z,4.40
2018-06-24T10:36:23.603Z,4.53
2018-06-24T10:38:51.805Z,4.87
2018-06-24T10:41:20.065Z,6.77
2018-06-24T10:43:48.335Z,4.73
2018-06-24T10:46:16.570Z,4.93
2018-06-24T10:48:44.801Z,4.57
2018-06-24T10:51:13.032Z,4.30
2018-06-24T10:53:41.290Z,4.57
2018-06-24T10:56:09.332Z,4.60
2018-06-24T10:58:38.513Z,4.90
2018-06-24T11:01:06.800Z,5.30
2018-06-24T11:03:35.035Z,4.67
2018-06-24T11:06:02.998Z,4.67
2018-06-24T11:08:32.537Z,4.00
2018-06-24T11:11:00.796Z,3.77
2018-06-24T11:13:29.098Z,4.30
2018-06-24T11:15:57.327Z,4.30
2018-06-24T11:18:25.544Z,3.67
2018-06-24T11:20:54.767Z,4.03
2018-06-24T11:23:22.994Z,3.77
2018-06-24T11:25:51.222Z,3.47
2018-06-24T11:28:20.188Z,3.90
2018-06-24T11:30:49.448Z,4.17
2018-06-24T11:33:17.646Z,3.87
2018-06-24T11:35:46.907Z,3.67
2018-06-24T11:38:15.150Z,3.90
2018-06-24T11:40:43.405Z,3.97
2018-06-24T11:43:11.623Z,3.37
2018-06-24T11:45:39.954Z,4.17
2018-06-24T11:48:08.219Z,4.03
2018-06-24T11:50:42.966Z,3.80
2018-06-24T11:53:11.194Z,3.83
2018-06-24T11:55:40.474Z,4.00
2018-06-24T11:58:08.694Z,3.93
2018-06-24T12:00:36.917Z,4.17
2018-06-24T12:03:05.284Z,3.60
2018-06-24T12:05:33.661Z,4.50
2018-06-24T12:08:02.902Z,4.30
2018-06-24T12:10:31.180Z,4.53
2018-06-24T12:12:59.426Z,5.17
2018-06-24T12:15:27.386Z,5.47
2018-06-24T12:17:55.654Z,5.20
2018-06-24T12:20:23.629Z,4.63
2018-06-24T12:22:51.591Z,4.73
2018-06-24T12:25:19.544Z,4.30
2018-06-24T12:27:47.776Z,4.27
2018-06-24T12:30:15.999Z,4.30
2018-06-24T12:32:44.977Z,4.50
2018-06-24T12:35:13.189Z,4.23
2018-06-24T12:37:42.438Z,4.43
2018-06-24T12:40:10.662Z,3.90
2018-06-24T12:42:38.955Z,3.37
2018-06-24T12:45:07.258Z,4.63
2018-06-24T12:47:36.514Z,4.20
2018-06-24T12:50:05.781Z,4.80
2018-06-24T12:52:34.073Z,3.93
2018-06-24T12:55:02.028Z,3.80
2018-06-24T12:57:31.099Z,3.60
2018-06-24T12:59:59.590Z,4.50
2018-06-24T13:02:27.575Z,3.80
2018-06-24T13:04:55.800Z,3.70
2018-06-24T13:07:24.026Z,3.97
2018-06-24T13:09:53.278Z,4.17
2018-06-24T13:12:21.535Z,3.33
2018-06-24T13:14:49.879Z,3.90
2018-06-24T13:17:17.839Z,3.67
2018-06-24T13:19:46.810Z,3.70
2018-06-24T13:22:15.149Z,3.47
2018-06-24T13:24:43.365Z,3.80
2018-06-24T13:27:11.710Z,3.50
2018-06-24T13:29:39.958Z,3.50
2018-06-24T13:32:08.237Z,3.83
2018-06-24T13:34:36.459Z,3.77
2018-06-24T13:37:04.963Z,4.00
2018-06-24T13:39:32.946Z,3.50
2018-06-24T13:42:02.238Z,3.30
2018-06-24T13:44:31.577Z,3.03
2018-06-24T13:47:02.065Z,3.10
2018-06-24T13:49:31.232Z,2.73
2018-06-24T13:52:01.536Z,3.10
2018-06-24T13:54:30.843Z,3.10
2018-06-24T13:57:00.185Z,3.07
2018-06-24T13:59:30.769Z,3.27
2018-06-24T14:02:00.206Z,2.83
2018-06-24T14:04:30.639Z,2.90
2018-06-24T14:07:00.093Z,3.50
2018-06-24T14:09:29.296Z,3.23
2018-06-24T14:11:59.088Z,3.33
2018-06-24T14:14:28.278Z,3.87
2018-06-24T14:16:57.619Z,2.67
2018-06-24T14:19:26.922Z,3.43
2018-06-24T14:21:56.005Z,3.27
2018-06-24T14:24:24.755Z,3.73
2018-06-24T14:26:54.988Z,3.03
2018-06-24T14:29:26.459Z,3.50
2018-06-24T14:31:56.678Z,10.33
2018-06-24T14:34:25.187Z,22.83
2018-06-24T14:36:54.351Z,25.03
2018-06-24T14:39:22.574Z,35.07
2018-06-24T14:41:50.819Z,11.33
2018-06-24T14:44:19.072Z,15.60
2018-06-24T14:46:47.303Z,9.43
2018-06-24T14:49:15.546Z,7.70
2018-06-24T14:51:43.765Z,11.43
2018-06-24T14:54:11.987Z,8.13
2018-06-24T14:56:40.218Z,8.83
2018-06-24T14:59:08.434Z,7.30
2018-06-24T15:01:36.429Z,6.40
2018-06-24T15:04:04.671Z,6.80
2018-06-24T15:06:32.911Z,8.17
2018-06-24T15:09:01.126Z,10.13
2018-06-24T15:11:29.347Z,8.40
2018-06-24T15:13:57.586Z,6.17
2018-06-24T15:16:25.554Z,5.20
2018-06-24T15:18:54.909Z,5.50
2018-06-24T15:21:23.127Z,5.73
2018-06-24T15:23:52.382Z,6.20
2018-06-24T15:26:21.654Z,4.83
2018-06-24T15:28:49.875Z,6.90
2018-06-24T15:31:18.102Z,6.70
2018-06-24T15:33:46.320Z,5.53
2018-06-24T15:36:14.577Z,5.47
2018-06-24T15:38:43.016Z,5.83
2018-06-24T15:41:11.247Z,5.60
2018-06-24T15:43:39.475Z,6.63
2018-06-24T15:46:07.689Z,6.73
2018-06-24T15:48:36.956Z,4.93
2018-06-24T15:51:05.183Z,4.50
2018-06-24T15:53:33.155Z,3.73
2018-06-24T15:56:01.130Z,3.93
2018-06-24T15:58:29.105Z,4.20
2018-06-24T16:00:57.324Z,4.67
2018-06-24T16:03:25.538Z,4.73
2018-06-24T16:05:54.814Z,5.17
2018-06-24T16:08:23.055Z,3.50
2018-06-24T16:10:51.351Z,4.60
2018-06-24T16:13:19.583Z,3.93
2018-06-24T16:15:47.798Z,4.20
2018-06-24T16:18:17.086Z,4.03
2018-06-24T16:20:45.495Z,3.87
2018-06-24T16:23:13.580Z,4.13
2018-06-24T16:25:41.800Z,3.27
2018-06-24T16:28:10.042Z,3.20
2018-06-24T16:30:38.457Z,3.10
2018-06-24T16:33:06.614Z,3.47
2018-06-24T16:35:34.854Z,3.57
2018-06-24T16:38:02.814Z,4.43
2018-06-24T16:40:31.074Z,3.70
2018-06-24T16:42:59.313Z,4.20
2018-06-24T16:45:27.546Z,3.73
2018-06-24T16:47:55.485Z,3.60
2018-06-24T16:50:23.699Z,3.83
2018-06-24T16:52:52.920Z,3.70
2018-06-24T16:55:22.186Z,3.13
2018-06-24T16:57:50.414Z,3.63
2018-06-24T17:00:18.649Z,3.97
2018-06-24T17:02:46.862Z,4.40
2018-06-24T17:05:15.104Z,4.00
2018-06-24T17:07:43.338Z,4.00
2018-06-24T17:10:11.556Z,4.00
2018-06-24T17:12:39.782Z,3.37
2018-06-24T17:15:09.063Z,4.07
2018-06-24T17:17:37.293Z,4.23
2018-06-24T17:20:06.575Z,4.60
2018-06-24T17:22:35.533Z,4.33
2018-06-24T17:25:03.818Z,3.70
2018-06-24T17:27:32.048Z,4.20
2018-06-24T17:30:00.278Z,3.80
2018-06-24T17:32:29.086Z,4.40
2018-06-24T17:34:58.334Z,4.93
2018-06-24T17:37:26.584Z,4.57
2018-06-24T17:39:55.862Z,4.23
2018-06-24T17:42:24.075Z,4.43
2018-06-24T17:44:52.322Z,4.83
2018-06-24T17:47:20.564Z,5.27
2018-06-24T17:49:48.854Z,5.00
2018-06-24T17:52:17.063Z,4.83
2018-06-24T17:54:45.329Z,3.97
2018-06-24T17:57:13.575Z,4.53
2018-06-24T17:59:41.822Z,4.30
2018-06-24T18:02:10.114Z,4.03
2018-06-24T18:04:39.386Z,4.93
2018-06-24T18:07:07.629Z,4.77
2018-06-24T18:09:35.857Z,4.67
2018-06-24T18:12:03.868Z,4.20
2018-06-24T18:14:32.051Z,5.10
2018-06-24T18:17:00.313Z,6.00
2018-06-24T18:19:28.502Z,4.50
2018-06-24T18:21:56.751Z,5.43
2018-06-24T18:24:26.097Z,5.27
2018-06-24T18:26:54.457Z,4.90
2018-06-24T18:29:22.694Z,5.83
2018-06-24T18:31:50.964Z,5.07
2018-06-24T18:34:19.234Z,5.17
2018-06-24T18:36:47.474Z,5.30
2018-06-24T18:39:15.707Z,5.00
2018-06-24T18:41:43.943Z,4.73
2018-06-24T18:44:12.186Z,4.90
2018-06-24T18:46:40.416Z,4.30
2018-06-24T18:49:08.642Z,4.30
2018-06-24T18:51:36.867Z,4.20
2018-06-24T18:54:06.199Z,5.40
2018-06-24T18:56:34.433Z,4.00
2018-06-24T18:59:02.766Z,5.23
2018-06-24T19:01:31.000Z,4.53
2018-06-24T19:03:59.239Z,4.43
2018-06-24T19:06:27.211Z,5.00
2018-06-24T19:08:55.463Z,4.80
2018-06-24T19:11:23.939Z,4.47
2018-06-24T19:13:52.181Z,4.33
2018-06-24T19:16:21.435Z,4.20
2018-06-24T19:18:49.702Z,3.97
2018-06-24T19:21:17.923Z,4.57
2018-06-24T19:23:46.154Z,4.27
2018-06-24T19:26:14.110Z,4.00
2018-06-24T19:28:42.414Z,5.47
2018-06-24T19:31:11.682Z,5.00
2018-06-24T19:33:39.950Z,4.00
2018-06-24T19:36:09.218Z,4.60
2018-06-24T19:38:37.448Z,4.53
2018-06-24T19:41:06.020Z,4.30
2018-06-24T19:43:34.305Z,4.40
2018-06-24T19:46:03.070Z,4.67
2018-06-24T19:48:31.308Z,4.33
2018-06-24T19:51:00.527Z,4.20
2018-06-24T19:53:28.786Z,4.90
2018-06-24T19:55:57.011Z,5.13
2018-06-24T19:58:24.951Z,4.27
2018-06-24T20:00:53.201Z,4.10
2018-06-24T20:03:21.431Z,4.40
2018-06-24T20:05:49.388Z,4.80
2018-06-24T20:08:17.642Z,4.33
2018-06-24T20:10:45.897Z,4.40
2018-06-24T20:13:14.116Z,4.67
2018-06-24T20:15:42.365Z,4.30
2018-06-24T20:18:10.604Z,4.63
2018-06-24T20:20:38.850Z,4.30
2018-06-24T20:23:07.086Z,4.37
2018-06-24T20:25:35.316Z,4.47
2018-06-24T20:28:03.568Z,5.00
2018-06-24T20:30:32.811Z,4.70
2018-06-24T20:33:01.058Z,4.60
2018-06-24T20:35:29.284Z,5.10
2018-06-24T20:37:57.531Z,5.70
2018-06-24T20:40:25.804Z,5.20
2018-06-24T20:42:55.046Z,5.83
2018-06-24T20:45:24.290Z,4.70
2018-06-24T20:47:52.550Z,5.00
2018-06-24T20:50:21.786Z,4.43
2018-06-24T20:52:50.088Z,4.70
2018-06-24T20:55:18.303Z,5.23
2018-06-24T20:57:46.686Z,5.17
2018-06-24T21:00:14.943Z,4.40
2018-06-24T21:02:43.163Z,4.60
2018-06-24T21:05:12.134Z,4.50
2018-06-24T21:07:40.394Z,4.50
2018-06-24T21:10:08.667Z,4.50
2018-06-24T21:12:36.886Z,4.87
2018-06-24T21:15:05.514Z,4.80
2018-06-24T21:17:33.827Z,4.60
2018-06-24T21:20:03.121Z,5.23
2018-06-24T21:22:31.402Z,4.40
2018-06-24T21:25:00.682Z,4.80
2018-06-24T21:27:28.924Z,4.90
2018-06-24T21:29:58.028Z,5.53
2018-06-24T21:32:27.284Z,5.57
2018-06-24T21:34:55.575Z,5.50
2018-06-24T21:37:23.841Z,5.20
2018-06-24T21:39:52.058Z,5.90
2018-06-24T21:42:20.382Z,5.17
2018-06-24T21:44:49.627Z,5.10
2018-06-24T21:47:17.860Z,4.73
2018-06-24T21:49:47.099Z,5.23
2018-06-24T21:52:15.330Z,5.10
2018-06-24T21:54:43.580Z,5.00
2018-06-24T21:57:11.794Z,5.40
2018-06-24T21:59:39.770Z,4.87
2018-06-24T22:02:09.049Z,5.13
2018-06-24T22:04:37.266Z,4.57
2018-06-24T22:07:05.486Z,5.40
2018-06-24T22:09:33.847Z,5.23
2018-06-24T22:12:02.063Z,5.53
2018-06-24T22:14:31.030Z,4.40
2018-06-24T22:16:59.271Z,5.03
2018-06-24T22:19:27.506Z,4.20
2018-06-24T22:21:55.499Z,4.57
2018-06-24T22:24:23.672Z,4.77
2018-06-24T22:26:51.918Z,4.53
2018-06-24T22:29:20.095Z,5.30
2018-06-24T22:31:49.055Z,5.03
2018-06-24T22:34:17.278Z,4.33
2018-06-24T22:36:45.501Z,4.43
2018-06-24T22:39:13.725Z,4.37
2018-06-24T22:41:42.457Z,4.20
2018-06-24T22:44:10.726Z,4.43
2018-06-24T22:46:40.040Z,4.17
2018-06-24T22:49:09.392Z,4.43
2018-06-24T22:51:38.713Z,4.47
2018-06-24T22:54:09.014Z,4.50
2018-06-24T22:56:38.281Z,3.90
2018-06-24T22:59:18.300Z,4.20
2018-06-24T23:01:47.456Z,4.77
2018-06-24T23:04:17.796Z,4.23
2018-06-24T23:06:47.130Z,4.67
2018-06-24T23:09:17.123Z,4.23
2018-06-24T23:11:46.191Z,4.43
2018-06-24T23:14:15.534Z,4.30
2018-06-24T23:16:44.894Z,4.20
2018-06-24T23:19:14.076Z,4.10
2018-06-24T23:21:42.806Z,4.27
2018-06-24T23:24:11.044Z,4.30
2018-06-24T23:26:39.309Z,4.50
2018-06-24T23:29:07.521Z,4.00
2018-06-24T23:31:35.726Z,4.33
2018-06-24T23:34:03.967Z,4.00
2018-06-24T23:36:32.161Z,4.03
2018-06-24T23:39:00.450Z,4.30
2018-06-24T23:41:28.699Z,4.00
2018-06-24T23:43:56.948Z,4.63
2018-06-24T23:46:25.162Z,4.40
2018-06-24T23:48:53.702Z,4.20
2018-06-24T23:51:22.940Z,4.33
2018-06-24T23:53:51.187Z,3.80
2018-06-24T23:56:19.382Z,3.73
2018-06-24T23:58:47.607Z,4.53
